Time;durP1;ratioP1;P1;durP2;ratioP2;P2;SDS_P1;SDS_P2;PMS_P1;PMS_P2;Temp;Humidity;BMP_temperature;BMP_pressure;BME280_temperature;BME280_humidity;BME280_pressure;Samples;Min_cycle;Max_cycle;Signal;HPM_P1;HPM_P2
2020/12/26 00:02:59;;;;;;;3.57;3.07;;;;;;;;;;5014034;28;20620;-71
2020/12/26 00:06:04;;;;;;;3.40;2.80;;;;;;;;;;5025878;28;20628;-72
2020/12/26 00:09:33;;;;;;;4.03;3.10;;;;;;;;;;5019237;22;20596;31
2020/12/26 00:12:37;;;;;;;3.83;3.00;;;;;;;;;;4964972;28;21009;-71
2020/12/26 00:15:41;;;;;;;7.23;3.50;;;;;;;;;;4955727;29;20563;-71
2020/12/26 00:18:46;;;;;;;4.03;2.90;;;;;;;;;;4941535;29;20596;-71
2020/12/26 00:21:52;;;;;;;4.47;2.80;;;;;;;;;;4937775;29;20651;-71
2020/12/26 00:24:56;;;;;;;5.67;2.80;;;;;;;;;;4941452;29;20587;-71
2020/12/26 00:28:00;;;;;;;4.00;3.10;;;;;;;;;;4955122;29;20967;-71
2020/12/26 00:31:04;;;;;;;3.57;3.03;;;;;;;;;;4953320;29;20658;-72
2020/12/26 00:34:09;;;;;;;3.77;2.80;;;;;;;;;;4941924;29;20615;-71
2020/12/26 00:37:17;;;;;;;3.13;2.70;;;;;;;;;;4955241;29;20544;-71
2020/12/26 00:40:21;;;;;;;2.90;2.60;;;;;;;;;;4949773;29;20584;-71
2020/12/26 00:43:25;;;;;;;3.60;2.87;;;;;;;;;;4936324;29;20541;-71
2020/12/26 00:46:29;;;;;;;3.80;3.00;;;;;;;;;;4935891;29;20636;-71
2020/12/26 00:49:33;;;;;;;3.43;2.67;;;;;;;;;;4936246;29;20545;-71
2020/12/26 00:52:38;;;;;;;4.47;2.70;;;;;;;;;;4954273;29;20650;-71
2020/12/26 00:55:42;;;;;;;4.40;2.73;;;;;;;;;;4943463;29;21077;-71
2020/12/26 00:58:48;;;;;;;3.97;2.90;;;;;;;;;;4965393;28;20527;-71
2020/12/26 01:01:54;;;;;;;3.93;3.00;;;;;;;;;;4952610;29;20643;-71
2020/12/26 01:05:04;;;;;;;4.30;3.30;;;;;;;;;;4944174;29;20591;-71
2020/12/26 01:08:08;;;;;;;4.23;2.73;;;;;;;;;;4954795;29;20963;-71
2020/12/26 01:11:12;;;;;;;3.37;2.80;;;;;;;;;;4943290;29;20663;-71
2020/12/26 01:14:16;;;;;;;4.97;3.20;;;;;;;;;;4935851;29;20596;-71
2020/12/26 01:17:21;;;;;;;4.90;3.00;;;;;;;;;;4937508;29;20619;-71
2020/12/26 01:20:26;;;;;;;3.40;2.20;;;;;;;;;;4940918;29;20587;-71
2020/12/26 01:23:31;;;;;;;4.03;2.97;;;;;;;;;;4964569;28;21165;-71
2020/12/26 01:26:35;;;;;;;4.50;2.50;;;;;;;;;;4953914;29;20627;-71
2020/12/26 01:29:40;;;;;;;6.07;2.60;;;;;;;;;;4954574;29;20928;-71
2020/12/26 01:32:44;;;;;;;3.77;2.67;;;;;;;;;;4936099;29;20655;-71
2020/12/26 01:35:48;;;;;;;3.93;2.63;;;;;;;;;;4935400;29;20545;-71
2020/12/26 01:38:53;;;;;;;3.57;2.50;;;;;;;;;;4939043;29;20599;-71
2020/12/26 01:41:56;;;;;;;5.17;3.30;;;;;;;;;;4937837;29;20651;-71
2020/12/26 01:45:00;;;;;;;4.40;3.03;;;;;;;;;;4935920;29;20560;-71
2020/12/26 01:48:05;;;;;;;5.40;2.47;;;;;;;;;;4935838;29;20628;-71
2020/12/26 01:51:09;;;;;;;3.57;2.83;;;;;;;;;;4935208;29;21000;-71
2020/12/26 01:54:13;;;;;;;5.97;2.83;;;;;;;;;;4935417;29;20924;-71
2020/12/26 01:57:17;;;;;;;4.37;2.70;;;;;;;;;;4951967;29;20579;-71
2020/12/26 02:00:21;;;;;;;3.83;2.90;;;;;;;;;;4939070;29;20595;-71
2020/12/26 02:03:26;;;;;;;3.90;2.97;;;;;;;;;;4953022;29;20591;-71
2020/12/26 02:06:56;;;;;;;3.10;2.80;;;;;;;;;;4958346;29;20595;-71
2020/12/26 02:10:01;;;;;;;4.90;2.97;;;;;;;;;;4939318;29;20631;-71
2020/12/26 02:13:05;;;;;;;5.87;3.03;;;;;;;;;;4957218;29;20907;-71
2020/12/26 02:16:13;;;;;;;4.10;3.30;;;;;;;;;;4938909;29;21106;-71
2020/12/26 02:19:20;;;;;;;3.53;3.07;;;;;;;;;;4955233;29;20583;-71
2020/12/26 02:22:25;;;;;;;7.23;3.40;;;;;;;;;;4938822;29;20623;-71
2020/12/26 02:25:29;;;;;;;3.80;3.30;;;;;;;;;;4966278;28;20579;-71
2020/12/26 02:28:33;;;;;;;5.00;3.73;;;;;;;;;;4957119;29;20587;-71
2020/12/26 02:31:38;;;;;;;4.47;3.40;;;;;;;;;;4937261;29;20646;-71
2020/12/26 02:34:42;;;;;;;5.67;3.10;;;;;;;;;;4958922;28;20602;-71
2020/12/26 02:37:46;;;;;;;4.53;3.03;;;;;;;;;;4957154;29;20567;-71
2020/12/26 02:40:50;;;;;;;6.27;3.80;;;;;;;;;;4950578;29;20627;-71
2020/12/26 02:43:54;;;;;;;5.47;3.70;;;;;;;;;;4938514;29;20603;-71
2020/12/26 02:46:58;;;;;;;5.70;3.17;;;;;;;;;;4953059;29;20631;-71
2020/12/26 02:55:13;;;;;;;4.47;3.00;;;;;;;;;;4962379;28;20931;-72
2020/12/26 02:58:18;;;;;;;6.83;3.13;;;;;;;;;;4954843;29;21148;-72
2020/12/26 03:01:23;;;;;;;4.17;3.23;;;;;;;;;;4949663;29;20650;-71
2020/12/26 03:04:27;;;;;;;7.13;3.47;;;;;;;;;;4956912;29;20599;-71
2020/12/26 03:07:31;;;;;;;4.83;3.33;;;;;;;;;;4956805;29;20631;-71
2020/12/26 03:10:36;;;;;;;4.87;3.00;;;;;;;;;;4952944;29;20636;-71
2020/12/26 03:13:40;;;;;;;3.57;2.87;;;;;;;;;;4939085;29;20595;-72
2020/12/26 03:16:44;;;;;;;3.70;2.60;;;;;;;;;;4947425;29;20591;-71
2020/12/26 03:19:48;;;;;;;3.00;2.60;;;;;;;;;;4946177;29;21182;-71
2020/12/26 03:22:53;;;;;;;3.43;2.90;;;;;;;;;;4937372;29;20655;-72
2020/12/26 03:25:56;;;;;;;3.30;2.70;;;;;;;;;;4937516;29;20592;-72
2020/12/26 03:29:01;;;;;;;3.43;2.70;;;;;;;;;;4936612;29;20589;-71
2020/12/26 03:32:05;;;;;;;3.90;2.67;;;;;;;;;;4953391;29;20643;-71
2020/12/26 03:35:09;;;;;;;3.70;2.60;;;;;;;;;;4946161;29;20591;-71
2020/12/26 03:38:13;;;;;;;3.87;2.80;;;;;;;;;;4937202;29;20620;-71
2020/12/26 03:41:17;;;;;;;3.97;2.80;;;;;;;;;;4946749;29;20646;-71
2020/12/26 03:44:22;;;;;;;4.00;2.90;;;;;;;;;;4955958;29;20595;-71
2020/12/26 03:47:26;;;;;;;4.43;3.20;;;;;;;;;;4956716;29;20654;-72
2020/12/26 03:50:30;;;;;;;3.93;3.27;;;;;;;;;;4941133;29;20579;-71
2020/12/26 03:53:34;;;;;;;6.27;3.50;;;;;;;;;;4940358;29;20599;-72
2020/12/26 03:56:38;;;;;;;4.60;3.30;;;;;;;;;;4937198;29;21153;-72
2020/12/26 03:59:42;;;;;;;4.47;3.53;;;;;;;;;;4946556;29;20627;-71
2020/12/26 04:02:46;;;;;;;5.10;3.77;;;;;;;;;;4937060;29;20971;-71
2020/12/26 04:05:51;;;;;;;4.87;3.80;;;;;;;;;;4937635;29;20654;-72
2020/12/26 04:08:56;;;;;;;6.80;3.60;;;;;;;;;;4950601;29;20668;-71
2020/12/26 04:12:00;;;;;;;6.67;4.03;;;;;;;;;;4936909;29;21194;-71
2020/12/26 04:15:04;;;;;;;5.47;3.90;;;;;;;;;;4946535;29;21169;-71
2020/12/26 04:18:08;;;;;;;6.13;3.93;;;;;;;;;;4955269;29;21160;-71
2020/12/26 04:21:13;;;;;;;5.87;4.10;;;;;;;;;;4935618;29;21193;-71
2020/12/26 04:24:17;;;;;;;6.00;4.27;;;;;;;;;;4936431;29;20603;-71
2020/12/26 04:27:21;;;;;;;7.90;4.53;;;;;;;;;;4935992;29;20659;-71
2020/12/26 04:30:26;;;;;;;5.93;4.10;;;;;;;;;;4936516;29;20600;-72
2020/12/26 04:33:29;;;;;;;5.70;4.10;;;;;;;;;;4936372;29;20604;-71
2020/12/26 04:36:34;;;;;;;6.73;4.20;;;;;;;;;;4944797;29;20591;-72
2020/12/26 04:39:40;;;;;;;8.23;4.73;;;;;;;;;;4935600;29;20549;-71
2020/12/26 04:42:45;;;;;;;5.50;4.23;;;;;;;;;;4946184;28;20711;-71
2020/12/26 04:45:53;;;;;;;5.77;4.30;;;;;;;;;;4935465;29;20561;-72
2020/12/26 04:49:04;;;;;;;5.70;3.97;;;;;;;;;;4949712;29;20631;-72
2020/12/26 04:52:09;;;;;;;7.90;4.43;;;;;;;;;;4962668;28;20650;-71
2020/12/26 04:55:16;;;;;;;7.57;4.67;;;;;;;;;;4953909;29;20579;-72
2020/12/26 04:58:20;;;;;;;6.80;4.53;;;;;;;;;;4946294;29;20585;-72
2020/12/26 05:01:25;;;;;;;5.73;4.50;;;;;;;;;;4936227;29;20655;-72
2020/12/26 05:04:29;;;;;;;6.30;4.47;;;;;;;;;;4935833;29;20596;-72
2020/12/26 05:07:35;;;;;;;7.17;4.63;;;;;;;;;;4947928;29;20643;-72
2020/12/26 05:10:41;;;;;;;6.93;4.60;;;;;;;;;;4936798;29;20631;-72
2020/12/26 05:13:45;;;;;;;8.30;4.90;;;;;;;;;;4943170;29;20658;-71
2020/12/26 05:16:50;;;;;;;5.70;4.47;;;;;;;;;;4965662;28;20544;-72
2020/12/26 05:19:54;;;;;;;9.73;5.03;;;;;;;;;;4936402;29;20533;-72
2020/12/26 05:23:09;;;;;;;6.27;4.53;;;;;;;;;;4953275;29;20647;-72
2020/12/26 05:26:13;;;;;;;8.13;5.30;;;;;;;;;;4954003;29;20948;-72
2020/12/26 05:29:20;;;;;;;7.03;5.10;;;;;;;;;;4937541;29;20628;-72
2020/12/26 05:32:24;;;;;;;7.77;4.83;;;;;;;;;;4935354;29;20952;-72
2020/12/26 05:35:34;;;;;;;7.80;5.43;;;;;;;;;;4935127;29;20596;-72
2020/12/26 05:38:38;;;;;;;7.27;4.77;;;;;;;;;;4937381;29;20600;-71
2020/12/26 05:41:44;;;;;;;7.43;5.40;;;;;;;;;;4939480;29;20627;-72
2020/12/26 05:44:48;;;;;;;6.43;4.77;;;;;;;;;;4939579;29;20556;-72
2020/12/26 05:48:06;;;;;;;8.13;5.40;;;;;;;;;;4942995;29;20662;-72
2020/12/26 05:51:10;;;;;;;6.10;4.43;;;;;;;;;;4955290;29;20639;-72
2020/12/26 05:54:16;;;;;;;8.00;4.40;;;;;;;;;;4938387;29;20596;-72
2020/12/26 05:57:20;;;;;;;5.73;4.47;;;;;;;;;;4939019;29;20628;-72
2020/12/26 06:00:32;;;;;;;6.57;4.63;;;;;;;;;;4947022;29;20622;-72
2020/12/26 06:03:36;;;;;;;8.03;5.47;;;;;;;;;;4956950;29;20599;-72
2020/12/26 06:06:41;;;;;;;7.17;4.97;;;;;;;;;;4958351;29;20602;-72
2020/12/26 06:09:50;;;;;;;8.30;5.57;;;;;;;;;;4957236;28;20671;-72
2020/12/26 06:12:55;;;;;;;5.07;4.20;;;;;;;;;;4938933;29;20659;-72
2020/12/26 06:16:09;;;;;;;6.53;4.80;;;;;;;;;;4938774;29;20600;-72
2020/12/26 06:19:17;;;;;;;6.73;5.03;;;;;;;;;;4949386;29;20592;-71
2020/12/26 06:22:21;;;;;;;7.27;5.63;;;;;;;;;;4938870;29;21237;-72
2020/12/26 06:25:25;;;;;;;7.57;5.50;;;;;;;;;;4938927;29;20548;-72
2020/12/26 06:28:32;;;;;;;7.67;5.47;;;;;;;;;;4945565;29;20638;-71
2020/12/26 06:31:37;;;;;;;8.60;6.10;;;;;;;;;;4958039;28;20646;-72
2020/12/26 06:34:41;;;;;;;6.73;5.10;;;;;;;;;;4952121;29;20592;-71
2020/12/26 06:37:46;;;;;;;7.33;5.57;;;;;;;;;;4939538;29;20596;-72
2020/12/26 06:40:52;;;;;;;8.30;5.53;;;;;;;;;;4938420;29;20596;-72
2020/12/26 06:43:56;;;;;;;8.03;5.50;;;;;;;;;;4948827;29;20545;-72
2020/12/26 06:47:00;;;;;;;7.73;5.33;;;;;;;;;;4938927;29;20549;-72
2020/12/26 06:50:38;;;;;;;8.80;5.30;;;;;;;;;;4958886;28;21134;-71
2020/12/26 06:53:42;;;;;;;5.70;4.30;;;;;;;;;;4957313;29;20595;-71
2020/12/26 06:56:46;;;;;;;9.87;5.47;;;;;;;;;;4954495;29;20591;-71
2020/12/26 06:59:50;;;;;;;9.00;5.47;;;;;;;;;;4943198;28;20655;-72
2020/12/26 07:03:19;;;;;;;7.83;5.03;;;;;;;;;;4965601;28;20650;-72
2020/12/26 07:06:47;;;;;;;7.60;5.20;;;;;;;;;;4971029;28;20598;-72
2020/12/26 07:09:51;;;;;;;9.17;5.70;;;;;;;;;;4950210;28;20659;-72
2020/12/26 07:12:55;;;;;;;7.67;4.83;;;;;;;;;;4939943;29;21237;-72
2020/12/26 07:15:59;;;;;;;9.17;6.73;;;;;;;;;;4945390;29;20595;-72
2020/12/26 07:19:23;;;;;;;7.00;5.90;;;;;;;;;;4942214;29;20583;-72
2020/12/26 07:22:29;;;;;;;9.00;6.40;;;;;;;;;;4956331;29;21003;-72
2020/12/26 07:25:34;;;;;;;7.80;5.13;;;;;;;;;;4940995;29;20620;-72
2020/12/26 07:28:40;;;;;;;8.20;5.47;;;;;;;;;;4937632;29;20632;-72
2020/12/26 07:31:47;;;;;;;8.10;5.20;;;;;;;;;;4937328;29;20623;-72
2020/12/26 07:34:51;;;;;;;9.53;5.57;;;;;;;;;;4947304;29;20599;-72
2020/12/26 07:38:04;;;;;;;7.63;5.40;;;;;;;;;;4966468;28;21144;-71
2020/12/26 07:41:12;;;;;;;8.97;6.23;;;;;;;;;;4956516;29;20623;-71
2020/12/26 07:44:18;;;;;;;16.33;9.13;;;;;;;;;;4959928;28;20627;-72
2020/12/26 07:47:23;;;;;;;49.27;20.00;;;;;;;;;;4955932;29;20607;-72
2020/12/26 07:50:30;;;;;;;36.10;16.43;;;;;;;;;;4956137;29;20547;-72
2020/12/26 07:53:34;;;;;;;15.40;10.90;;;;;;;;;;4938345;29;20601;-72
2020/12/26 07:56:38;;;;;;;11.03;7.17;;;;;;;;;;4937006;29;20595;-72
2020/12/26 07:59:42;;;;;;;15.87;9.27;;;;;;;;;;4936486;29;20552;-72
2020/12/26 08:02:54;;;;;;;12.73;6.87;;;;;;;;;;4937548;29;20666;-72
2020/12/26 08:05:58;;;;;;;13.50;9.13;;;;;;;;;;4936972;29;20544;-72
2020/12/26 08:09:06;;;;;;;11.13;7.17;;;;;;;;;;4961871;28;20614;-72
2020/12/26 08:12:10;;;;;;;7.67;5.43;;;;;;;;;;4948621;29;20643;-72
2020/12/26 08:15:29;;;;;;;8.87;6.47;;;;;;;;;;4936469;29;20600;-72
2020/12/26 08:18:35;;;;;;;9.87;7.70;;;;;;;;;;4937010;29;20541;-71
2020/12/26 08:21:40;;;;;;;9.90;6.53;;;;;;;;;;4935800;29;20627;-71
2020/12/26 08:24:44;;;;;;;9.33;5.80;;;;;;;;;;4952884;29;20603;-71
2020/12/26 08:27:49;;;;;;;9.97;6.70;;;;;;;;;;4955167;29;21055;-71
2020/12/26 08:30:55;;;;;;;8.53;5.80;;;;;;;;;;4948964;29;20588;-71
2020/12/26 08:34:21;;;;;;;7.43;5.10;;;;;;;;;;4951069;29;21130;-71
2020/12/26 08:37:41;;;;;;;10.30;6.97;;;;;;;;;;4949621;29;20588;-71
2020/12/26 08:40:56;;;;;;;9.03;5.70;;;;;;;;;;4952402;29;21149;-71
2020/12/26 08:44:08;;;;;;;6.80;5.07;;;;;;;;;;4942351;29;20583;-71
2020/12/26 08:47:24;;;;;;;8.17;5.07;;;;;;;;;;4951718;29;20583;-73
2020/12/26 08:50:29;;;;;;;6.60;4.37;;;;;;;;;;4955109;29;20595;-72
2020/12/26 08:53:36;;;;;;;7.80;5.33;;;;;;;;;;4964619;28;20560;-72
2020/12/26 08:56:40;;;;;;;11.43;8.30;;;;;;;;;;4936065;29;20548;-72
2020/12/26 08:59:44;;;;;;;10.83;7.27;;;;;;;;;;4941267;29;20619;-71
2020/12/26 09:02:50;;;;;;;24.93;14.67;;;;;;;;;;4945979;29;20647;-72
2020/12/26 09:05:56;;;;;;;27.17;15.40;;;;;;;;;;4937060;29;20631;-74
2020/12/26 09:09:15;;;;;;;20.60;11.80;;;;;;;;;;4935693;29;21193;-74
2020/12/26 09:12:19;;;;;;;7.87;5.17;;;;;;;;;;4941782;29;20658;-72
2020/12/26 09:15:24;;;;;;;5.33;4.13;;;;;;;;;;4950634;28;20591;-72
2020/12/26 09:18:33;;;;;;;8.23;3.90;;;;;;;;;;4957293;28;20587;-72
2020/12/26 09:21:37;;;;;;;6.23;3.70;;;;;;;;;;4974236;28;20622;-72
2020/12/26 09:24:41;;;;;;;4.73;3.47;;;;;;;;;;4963462;28;20586;-72
2020/12/26 09:27:45;;;;;;;6.30;4.27;;;;;;;;;;4973376;28;20542;-72
2020/12/26 09:30:49;;;;;;;6.33;4.17;;;;;;;;;;4951802;28;20635;-71
2020/12/26 09:33:56;;;;;;;4.97;3.80;;;;;;;;;;4973457;28;20543;-72
2020/12/26 09:37:05;;;;;;;6.23;3.53;;;;;;;;;;4955320;28;20575;-72
2020/12/26 09:40:09;;;;;;;8.50;3.53;;;;;;;;;;4954879;29;20560;-72
2020/12/26 09:43:13;;;;;;;5.57;3.40;;;;;;;;;;4954525;29;20602;-72
2020/12/26 09:46:18;;;;;;;7.30;5.80;;;;;;;;;;4954497;29;20610;-72
2020/12/26 09:49:22;;;;;;;11.90;9.20;;;;;;;;;;4935354;29;20644;-72
2020/12/26 09:52:26;;;;;;;4.83;3.40;;;;;;;;;;4935332;29;20631;-72
2020/12/26 09:55:31;;;;;;;4.43;3.10;;;;;;;;;;4935439;29;20548;-71
2020/12/26 09:58:42;;;;;;;3.80;2.00;;;;;;;;;;4934900;29;20544;-76
2020/12/26 10:01:47;;;;;;;2.47;2.13;;;;;;;;;;4935543;29;20623;-76
2020/12/26 10:04:51;;;;;;;3.00;1.77;;;;;;;;;;4935464;29;20556;-76
2020/12/26 10:07:55;;;;;;;3.80;1.90;;;;;;;;;;4953172;29;20626;-73
2020/12/26 10:10:59;;;;;;;3.47;3.00;;;;;;;;;;4950610;29;20675;-73
2020/12/26 10:14:04;;;;;;;4.23;2.20;;;;;;;;;;4945740;29;20591;-73
2020/12/26 10:17:08;;;;;;;5.07;2.83;;;;;;;;;;4952161;29;20595;-75
2020/12/26 10:20:12;;;;;;;108.07;55.73;;;;;;;;;;4954663;29;20543;-75
2020/12/26 10:23:16;;;;;;;177.83;132.40;;;;;;;;;;4935635;29;20599;-74
2020/12/26 10:26:20;;;;;;;4.10;2.40;;;;;;;;;;4957292;28;20597;-75
2020/12/26 10:29:25;;;;;;;3.37;2.03;;;;;;;;;;4958085;29;20595;-75
2020/12/26 10:32:29;;;;;;;3.10;1.77;;;;;;;;;;4957050;28;20939;-74
2020/12/26 10:35:33;;;;;;;2.27;1.60;;;;;;;;;;4937940;29;20549;-75
2020/12/26 10:38:37;;;;;;;3.53;2.00;;;;;;;;;;4942047;29;20625;-75
2020/12/26 10:41:45;;;;;;;3.53;1.70;;;;;;;;;;4957140;29;20650;-75
2020/12/26 10:44:49;;;;;;;9.90;3.80;;;;;;;;;;4943205;29;20627;-74
2020/12/26 10:47:53;;;;;;;4.17;2.97;;;;;;;;;;4938359;29;20544;-75
2020/12/26 10:50:57;;;;;;;7.57;4.97;;;;;;;;;;4938393;29;20596;-74
2020/12/26 10:54:02;;;;;;;95.33;34.87;;;;;;;;;;4937199;29;20968;-74
2020/12/26 10:57:06;;;;;;;16.30;9.73;;;;;;;;;;4951935;28;20612;-73
2020/12/26 11:00:11;;;;;;;42.87;20.57;;;;;;;;;;4938872;29;20560;-73
2020/12/26 11:03:15;;;;;;;275.37;88.30;;;;;;;;;;4938707;29;20612;-73
2020/12/26 11:06:20;;;;;;;387.70;174.13;;;;;;;;;;4938680;29;20614;-73
2020/12/26 11:09:24;;;;;;;41.57;19.63;;;;;;;;;;4942273;29;20634;-73
2020/12/26 11:12:28;;;;;;;58.10;33.63;;;;;;;;;;4956759;29;20635;-74
2020/12/26 11:15:32;;;;;;;55.67;32.17;;;;;;;;;;4966982;28;20602;-73
2020/12/26 11:18:36;;;;;;;28.77;17.03;;;;;;;;;;4955860;29;20195;-74
2020/12/26 11:21:41;;;;;;;8.47;3.77;;;;;;;;;;4957117;29;20629;-74
2020/12/26 11:24:45;;;;;;;74.53;40.17;;;;;;;;;;4967251;28;20555;-74
2020/12/26 11:27:49;;;;;;;5.77;3.10;;;;;;;;;;4955676;29;20915;-74
2020/12/26 11:30:53;;;;;;;3.93;3.40;;;;;;;;;;4956356;29;20626;-74
2020/12/26 11:33:57;;;;;;;4.97;2.90;;;;;;;;;;4967049;28;20552;-74
2020/12/26 11:37:04;;;;;;;4.50;3.37;;;;;;;;;;4956319;28;21066;-74
2020/12/26 11:40:08;;;;;;;3.67;2.70;;;;;;;;;;4945662;29;20592;-73
2020/12/26 11:43:12;;;;;;;4.80;3.27;;;;;;;;;;4964873;28;20626;-73
2020/12/26 11:46:16;;;;;;;3.27;2.40;;;;;;;;;;4955557;29;20626;-74
2020/12/26 11:49:22;;;;;;;6.57;2.47;;;;;;;;;;4956400;29;20606;-74
2020/12/26 11:52:26;;;;;;;4.53;2.47;;;;;;;;;;4955280;29;20623;-74
2020/12/26 11:55:31;;;;;;;4.57;2.33;;;;;;;;;;4951963;29;20595;-74
2020/12/26 11:58:35;;;;;;;10.03;3.83;;;;;;;;;;4955257;29;20547;-75
2020/12/26 12:01:40;;;;;;;4.83;3.37;;;;;;;;;;4955574;29;20646;-74
2020/12/26 12:04:45;;;;;;;5.10;2.53;;;;;;;;;;4936094;29;20560;-74
2020/12/26 12:07:49;;;;;;;3.77;2.37;;;;;;;;;;4954723;29;20580;-74
2020/12/26 12:10:53;;;;;;;5.20;2.40;;;;;;;;;;4947438;29;20651;-73
2020/12/26 12:13:57;;;;;;;3.30;2.50;;;;;;;;;;4991493;22;20683;-72
2020/12/26 12:17:02;;;;;;;4.53;2.60;;;;;;;;;;5001818;28;20553;-72
2020/12/26 12:20:06;;;;;;;4.67;2.90;;;;;;;;;;5014250;28;20533;-72
2020/12/26 12:23:10;;;;;;;4.03;2.40;;;;;;;;;;4993731;28;20585;-72
2020/12/26 12:26:26;;;;;;;5.13;2.60;;;;;;;;;;4995857;28;20554;-72
2020/12/26 12:29:30;;;;;;;29.60;17.80;;;;;;;;;;4994353;28;20545;-72
2020/12/26 12:32:34;;;;;;;7.37;4.30;;;;;;;;;;4989131;28;20648;-73
2020/12/26 12:35:39;;;;;;;4.20;2.83;;;;;;;;;;5004058;28;20558;-73
2020/12/26 12:38:43;;;;;;;4.30;3.40;;;;;;;;;;5002386;28;20585;-73
2020/12/26 12:41:52;;;;;;;3.07;2.43;;;;;;;;;;4993743;28;20632;-73
2020/12/26 12:44:57;;;;;;;3.40;2.47;;;;;;;;;;5013397;28;20592;-73
2020/12/26 12:48:01;;;;;;;3.67;2.27;;;;;;;;;;5001523;28;20544;-73
2020/12/26 12:51:06;;;;;;;5.67;3.20;;;;;;;;;;5013328;28;20652;-73
2020/12/26 12:54:12;;;;;;;4.27;2.30;;;;;;;;;;4970769;28;20600;-73
2020/12/26 12:57:16;;;;;;;3.33;2.50;;;;;;;;;;4994019;28;21075;-73
2020/12/26 13:00:20;;;;;;;7.33;2.40;;;;;;;;;;4993704;28;20546;-73
2020/12/26 13:03:24;;;;;;;4.43;2.70;;;;;;;;;;4993995;28;20625;-72
2020/12/26 13:06:28;;;;;;;5.80;2.70;;;;;;;;;;4994085;28;20617;-72
2020/12/26 13:09:33;;;;;;;4.87;2.50;;;;;;;;;;5002320;28;20596;-72
2020/12/26 13:12:37;;;;;;;3.07;2.40;;;;;;;;;;5006391;28;20637;-73
2020/12/26 13:15:42;;;;;;;4.80;2.80;;;;;;;;;;5012192;28;20627;-73
2020/12/26 13:18:47;;;;;;;6.80;2.70;;;;;;;;;;5013431;28;20548;-73
2020/12/26 13:21:52;;;;;;;3.07;2.20;;;;;;;;;;4996312;28;21216;-72
2020/12/26 13:24:57;;;;;;;4.07;2.80;;;;;;;;;;4993406;28;20546;-72
2020/12/26 13:28:01;;;;;;;4.00;2.60;;;;;;;;;;4995449;28;20585;-72
2020/12/26 13:31:06;;;;;;;10.73;5.07;;;;;;;;;;4997235;28;20652;-72
2020/12/26 13:34:10;;;;;;;15.43;7.23;;;;;;;;;;4993387;28;20593;-72
2020/12/26 13:37:15;;;;;;;10.87;4.37;;;;;;;;;;4981346;28;20621;-72
2020/12/26 13:40:19;;;;;;;5.47;2.90;;;;;;;;;;4993603;28;20202;-72
2020/12/26 13:43:23;;;;;;;2.90;2.20;;;;;;;;;;4981643;28;20194;-72
2020/12/26 13:46:27;;;;;;;3.57;2.20;;;;;;;;;;4992887;28;20186;-72
2020/12/26 13:49:31;;;;;;;4.90;3.67;;;;;;;;;;4993438;28;20206;-72
2020/12/26 13:52:35;;;;;;;5.30;2.70;;;;;;;;;;4981232;28;20218;-73
2020/12/26 13:55:40;;;;;;;3.30;2.20;;;;;;;;;;4993268;28;20186;-73
2020/12/26 13:58:44;;;;;;;4.83;2.73;;;;;;;;;;4993174;28;20194;-73
2020/12/26 14:01:48;;;;;;;20.37;17.93;;;;;;;;;;4996640;28;20214;-73
2020/12/26 14:04:52;;;;;;;8.60;7.30;;;;;;;;;;4997124;28;20191;-73
2020/12/26 14:07:57;;;;;;;4.30;2.70;;;;;;;;;;4996859;28;20205;-73
2020/12/26 14:11:04;;;;;;;3.27;2.47;;;;;;;;;;4996627;28;20700;-73
2020/12/26 14:14:08;;;;;;;4.90;2.90;;;;;;;;;;4996761;28;20612;-73
2020/12/26 14:17:12;;;;;;;5.43;3.03;;;;;;;;;;4996581;28;20605;-73
2020/12/26 14:20:17;;;;;;;3.87;2.93;;;;;;;;;;4996659;28;20597;-73
2020/12/26 14:23:21;;;;;;;4.23;3.83;;;;;;;;;;4996645;28;20554;-73
2020/12/26 14:26:25;;;;;;;5.77;3.77;;;;;;;;;;4996735;28;20550;-73
2020/12/26 14:29:29;;;;;;;7.47;4.73;;;;;;;;;;4984364;28;20612;-73
2020/12/26 14:32:34;;;;;;;8.53;6.00;;;;;;;;;;4996591;28;20645;-73
2020/12/26 14:35:38;;;;;;;12.83;8.40;;;;;;;;;;4996584;28;20546;-73
2020/12/26 14:38:42;;;;;;;12.93;9.70;;;;;;;;;;4999971;28;20573;-73
2020/12/26 14:41:47;;;;;;;9.00;7.60;;;;;;;;;;5011471;28;20640;-72
2020/12/26 14:44:51;;;;;;;5.20;3.00;;;;;;;;;;5003889;28;20908;-73
2020/12/26 14:48:00;;;;;;;4.93;3.13;;;;;;;;;;4992351;28;20600;-72
2020/12/26 14:51:05;;;;;;;6.03;3.30;;;;;;;;;;4985891;28;20661;-72
2020/12/26 14:54:10;;;;;;;4.30;3.00;;;;;;;;;;4989222;28;20628;-73
2020/12/26 14:57:14;;;;;;;25.53;19.47;;;;;;;;;;4995908;28;21084;-73
2020/12/26 15:00:18;;;;;;;23.87;15.57;;;;;;;;;;4996488;28;21139;-72
2020/12/26 15:03:22;;;;;;;50.43;32.40;;;;;;;;;;4983786;28;20552;-72
2020/12/26 15:06:29;;;;;;;18.77;12.60;;;;;;;;;;5002325;28;20594;-72
2020/12/26 15:09:33;;;;;;;36.60;21.90;;;;;;;;;;5004269;28;20579;-73
2020/12/26 15:12:38;;;;;;;34.10;21.63;;;;;;;;;;4990672;28;20690;-73
2020/12/26 15:15:42;;;;;;;37.47;21.67;;;;;;;;;;4983687;28;20614;-72
2020/12/26 15:18:46;;;;;;;21.80;11.87;;;;;;;;;;5002537;28;20592;-72
2020/12/26 15:21:50;;;;;;;12.77;7.17;;;;;;;;;;5001022;28;20630;-72
2020/12/26 15:24:54;;;;;;;5.93;3.87;;;;;;;;;;5001350;28;21154;-72
2020/12/26 15:27:58;;;;;;;7.30;4.47;;;;;;;;;;5007244;28;20643;-72
2020/12/26 15:31:06;;;;;;;5.20;3.00;;;;;;;;;;5002303;28;21000;-72
2020/12/26 15:34:11;;;;;;;5.80;3.33;;;;;;;;;;5001211;28;20620;-73
2020/12/26 15:37:15;;;;;;;5.73;2.80;;;;;;;;;;5010114;28;21118;-72
2020/12/26 15:40:19;;;;;;;4.57;3.00;;;;;;;;;;5003671;28;20588;-73
2020/12/26 15:43:25;;;;;;;7.30;3.43;;;;;;;;;;4985294;28;20569;-73
2020/12/26 15:46:29;;;;;;;4.50;2.83;;;;;;;;;;4982920;28;20593;-72
2020/12/26 15:49:33;;;;;;;5.87;3.40;;;;;;;;;;4995117;28;20597;-73
2020/12/26 15:52:37;;;;;;;4.83;2.90;;;;;;;;;;5010912;28;21008;-72
2020/12/26 15:55:43;;;;;;;5.10;3.30;;;;;;;;;;5014957;28;20549;-72
2020/12/26 15:58:47;;;;;;;5.57;3.43;;;;;;;;;;5010357;28;20589;-72
2020/12/26 16:01:52;;;;;;;6.07;3.70;;;;;;;;;;5013085;28;20648;-73
2020/12/26 16:04:55;;;;;;;9.37;4.00;;;;;;;;;;5013676;28;20624;-73
2020/12/26 16:08:00;;;;;;;7.40;4.17;;;;;;;;;;5002657;28;20589;-73
2020/12/26 16:11:04;;;;;;;7.07;4.40;;;;;;;;;;4987728;28;20656;-72
2020/12/26 16:14:08;;;;;;;8.57;4.23;;;;;;;;;;4982323;28;20613;-72
2020/12/26 16:17:12;;;;;;;6.27;3.50;;;;;;;;;;4994462;28;21143;-73
2020/12/26 16:20:17;;;;;;;7.67;3.80;;;;;;;;;;4993169;28;20592;-72
2020/12/26 16:23:20;;;;;;;7.27;3.83;;;;;;;;;;5008024;28;20593;-73
2020/12/26 16:26:35;;;;;;;25.00;10.53;;;;;;;;;;5011410;28;20541;-73
2020/12/26 16:29:39;;;;;;;27.30;10.23;;;;;;;;;;4991443;28;20603;-73
2020/12/26 16:32:44;;;;;;;74.40;26.50;;;;;;;;;;5013411;28;20666;-73
2020/12/26 16:35:50;;;;;;;55.43;21.37;;;;;;;;;;5000066;28;20552;-74
2020/12/26 16:38:55;;;;;;;30.63;15.07;;;;;;;;;;4984308;28;20635;-73
2020/12/26 16:41:59;;;;;;;14.53;8.67;;;;;;;;;;5012028;28;21256;-73
2020/12/26 16:45:05;;;;;;;9.17;5.57;;;;;;;;;;5014206;28;20563;-72
2020/12/26 16:48:08;;;;;;;5.37;3.43;;;;;;;;;;5013181;28;20596;-73
2020/12/26 16:51:13;;;;;;;5.53;3.90;;;;;;;;;;4991479;28;20652;-72
2020/12/26 16:54:17;;;;;;;6.67;4.27;;;;;;;;;;5009615;28;20621;-73
2020/12/26 16:57:22;;;;;;;6.80;3.77;;;;;;;;;;4993719;28;20929;-73
2020/12/26 17:00:26;;;;;;;8.40;4.17;;;;;;;;;;4995623;28;20596;-72
2020/12/26 17:03:30;;;;;;;6.57;4.27;;;;;;;;;;5001564;28;20533;-73
2020/12/26 17:06:34;;;;;;;6.33;3.90;;;;;;;;;;4983264;28;20589;-72
2020/12/26 17:09:40;;;;;;;6.67;3.63;;;;;;;;;;5001370;28;20596;-72
2020/12/26 17:12:46;;;;;;;6.97;3.63;;;;;;;;;;5001004;28;20660;-73
2020/12/26 17:15:51;;;;;;;5.20;3.60;;;;;;;;;;5012145;28;20929;-73
2020/12/26 17:18:55;;;;;;;5.57;3.83;;;;;;;;;;5013078;28;20541;-73
2020/12/26 17:22:04;;;;;;;6.50;3.43;;;;;;;;;;4992222;28;20632;-72
2020/12/26 17:25:08;;;;;;;7.53;3.70;;;;;;;;;;5027083;28;20576;-73
2020/12/26 17:28:12;;;;;;;8.73;4.87;;;;;;;;;;4981563;28;20588;-72
2020/12/26 17:31:23;;;;;;;8.57;4.20;;;;;;;;;;5006613;28;20635;-72
2020/12/26 17:34:27;;;;;;;7.87;3.87;;;;;;;;;;5016823;28;20587;-72
2020/12/26 17:37:31;;;;;;;6.10;3.73;;;;;;;;;;5017360;28;20583;-71
2020/12/26 17:40:37;;;;;;;5.13;3.00;;;;;;;;;;5028425;28;20612;-71
2020/12/26 17:43:42;;;;;;;4.13;3.10;;;;;;;;;;5005037;28;20601;-71
2020/12/26 17:46:46;;;;;;;5.00;3.07;;;;;;;;;;5005235;28;21055;-72
2020/12/26 17:49:50;;;;;;;5.67;3.33;;;;;;;;;;5006307;28;20612;-73
2020/12/26 17:52:54;;;;;;;4.57;3.60;;;;;;;;;;5015212;28;20656;-73
2020/12/26 17:55:58;;;;;;;5.03;3.03;;;;;;;;;;5016876;28;20540;-73
2020/12/26 17:59:02;;;;;;;6.43;3.47;;;;;;;;;;5016790;28;20553;-73
2020/12/26 18:02:06;;;;;;;6.77;3.53;;;;;;;;;;5012053;28;20645;-73
2020/12/26 18:05:11;;;;;;;6.60;3.43;;;;;;;;;;4985075;28;20590;-73
2020/12/26 18:08:15;;;;;;;5.70;3.60;;;;;;;;;;5019315;28;20575;-73
2020/12/26 18:11:20;;;;;;;4.67;3.30;;;;;;;;;;5036112;28;21149;-73
2020/12/26 18:14:24;;;;;;;6.57;3.37;;;;;;;;;;5018513;22;20696;-74
2020/12/26 18:17:30;;;;;;;4.77;3.20;;;;;;;;;;5015526;28;21161;-74
2020/12/26 18:20:34;;;;;;;5.40;3.33;;;;;;;;;;5016320;28;20545;-74
2020/12/26 18:23:38;;;;;;;7.47;3.40;;;;;;;;;;4996616;28;20596;-73
2020/12/26 18:26:42;;;;;;;8.60;3.80;;;;;;;;;;4996556;28;20936;-73
2020/12/26 18:29:46;;;;;;;5.30;3.20;;;;;;;;;;4996286;28;20554;-73
2020/12/26 18:32:52;;;;;;;7.40;4.00;;;;;;;;;;4995615;28;20657;-73
2020/12/26 18:35:58;;;;;;;5.77;3.47;;;;;;;;;;4996278;28;20617;-73